createdAt,value
2018-06-12T00:02:21.027Z,23.90
2018-06-12T00:04:48.349Z,21.37
2018-06-12T00:07:15.372Z,23.43
2018-06-12T00:09:42.702Z,22.33
2018-06-12T00:12:09.782Z,20.77
2018-06-12T00:14:36.808Z,21.20
2018-06-12T00:17:03.914Z,23.43
2018-06-12T00:19:31.133Z,23.37
2018-06-12T00:21:58.341Z,24.33
2018-06-12T00:24:25.468Z,23.60
2018-06-12T00:26:52.579Z,25.17
2018-06-12T00:29:19.796Z,22.60
2018-06-12T00:31:46.780Z,24.60
2018-06-12T00:34:13.635Z,25.97
2018-06-12T00:36:40.567Z,22.20
2018-06-12T00:39:07.416Z,24.50
2018-06-12T00:41:34.356Z,24.03
2018-06-12T00:44:01.248Z,22.87
2018-06-12T00:46:28.118Z,23.30
2018-06-12T00:48:55.782Z,22.80
2018-06-12T00:51:22.656Z,22.67
2018-06-12T00:53:49.641Z,24.13
2018-06-12T00:56:16.607Z,21.90
2018-06-12T00:58:44.268Z,21.77
2018-06-12T01:01:11.961Z,21.83
2018-06-12T01:03:38.874Z,21.20
2018-06-12T01:06:06.542Z,18.20
2018-06-12T01:08:34.216Z,20.47
2018-06-12T01:11:01.113Z,21.43
2018-06-12T01:13:28.789Z,20.80
2018-06-12T01:15:55.682Z,18.80
2018-06-12T01:18:22.591Z,21.40
2018-06-12T01:20:49.567Z,20.27
2018-06-12T01:23:16.708Z,20.57
2018-06-12T01:25:44.396Z,22.17
2018-06-12T01:28:11.253Z,19.57
2018-06-12T01:30:38.115Z,21.67
2018-06-12T01:33:05.104Z,19.97
2018-06-12T01:35:32.009Z,19.70
2018-06-12T01:37:58.912Z,20.10
2018-06-12T01:40:25.845Z,19.60
2018-06-12T01:42:53.449Z,18.40
2018-06-12T01:45:20.392Z,20.97
2018-06-12T01:47:47.247Z,18.93
2018-06-12T01:50:14.102Z,21.00
2018-06-12T01:52:41.016Z,18.80
2018-06-12T01:55:07.938Z,21.10
2018-06-12T01:57:34.868Z,22.43
2018-06-12T02:00:01.770Z,19.70
2018-06-12T02:02:28.684Z,19.70
2018-06-12T02:04:55.575Z,17.87
2018-06-12T02:07:22.485Z,20.10
2018-06-12T02:09:49.349Z,18.70
2018-06-12T02:12:16.324Z,20.50
2018-06-12T02:14:43.239Z,21.57
2018-06-12T02:17:10.124Z,20.70
2018-06-12T02:19:37.120Z,19.20
2018-06-12T02:22:04.021Z,21.23
2018-06-12T02:24:30.932Z,19.90
2018-06-12T02:26:58.596Z,20.07
2018-06-12T02:29:25.552Z,18.70
2018-06-12T02:31:52.506Z,19.93
2018-06-12T02:34:19.363Z,17.70
2018-06-12T02:36:46.316Z,18.77
2018-06-12T02:39:13.284Z,20.57
2018-06-12T02:41:40.976Z,19.47
2018-06-12T02:44:07.928Z,18.97
2018-06-12T02:46:34.788Z,21.43
2018-06-12T02:49:01.744Z,22.47
2018-06-12T02:51:28.656Z,20.37
2018-06-12T02:53:55.516Z,22.90
2018-06-12T02:56:22.448Z,21.70
2018-06-12T02:58:50.076Z,20.77
2018-06-12T03:01:17.681Z,18.97
2018-06-12T03:03:44.605Z,20.57
2018-06-12T03:06:11.558Z,22.80
2018-06-12T03:08:38.449Z,23.00
2018-06-12T03:11:05.405Z,20.37
2018-06-12T03:13:32.272Z,23.60
2018-06-12T03:15:59.218Z,23.10
2018-06-12T03:18:26.090Z,23.90
2018-06-12T03:20:53.007Z,23.07
2018-06-12T03:23:19.948Z,25.87
2018-06-12T03:25:46.955Z,23.60
2018-06-12T03:28:13.950Z,22.90
2018-06-12T03:30:40.849Z,23.63
2018-06-12T03:33:07.795Z,20.83
2018-06-12T03:35:34.693Z,20.60
2018-06-12T03:38:01.623Z,20.00
2018-06-12T03:40:29.370Z,19.53
2018-06-12T03:42:56.358Z,20.57
2018-06-12T03:45:23.221Z,20.50
2018-06-12T03:47:50.151Z,21.63
2018-06-12T03:50:17.071Z,21.93
2018-06-12T03:52:44.721Z,21.80
2018-06-12T03:55:12.322Z,19.57
2018-06-12T03:57:39.338Z,19.13
2018-06-12T04:00:06.274Z,20.97
2018-06-12T04:02:33.944Z,20.10
2018-06-12T04:05:00.950Z,19.60
2018-06-12T04:07:30.764Z,19.37
2018-06-12T04:09:57.707Z,19.13
2018-06-12T04:12:24.615Z,19.50
2018-06-12T04:14:51.568Z,18.97
2018-06-12T04:17:18.497Z,18.03
2018-06-12T04:19:46.094Z,18.23
2018-06-12T04:22:13.028Z,19.77
2018-06-12T04:24:39.949Z,18.13
2018-06-12T04:27:13.163Z,17.20
2018-06-12T04:29:40.086Z,21.27
2018-06-12T04:32:07.006Z,18.10
2018-06-12T04:34:33.940Z,18.00
2018-06-12T04:37:00.830Z,19.60
2018-06-12T04:39:27.780Z,18.87
2018-06-12T04:41:54.716Z,18.70
2018-06-12T04:44:22.223Z,20.37
2018-06-12T04:46:49.085Z,18.73
2018-06-12T04:49:16.052Z,20.70
2018-06-12T04:51:42.938Z,18.93
2018-06-12T04:54:09.884Z,19.33
2018-06-12T04:56:36.763Z,20.67
2018-06-12T04:59:03.709Z,18.40
2018-06-12T05:01:30.576Z,19.07
2018-06-12T05:03:57.524Z,19.63
2018-06-12T05:06:24.477Z,19.17
2018-06-12T05:08:51.387Z,18.23
2018-06-12T05:11:18.422Z,18.53
2018-06-12T05:13:45.293Z,17.50
2018-06-12T05:16:12.232Z,18.47
2018-06-12T05:18:39.192Z,17.83
2018-06-12T05:21:06.109Z,18.70
2018-06-12T05:23:33.071Z,19.40
2018-06-12T05:25:59.958Z,18.97
2018-06-12T05:28:27.704Z,16.20
2018-06-12T05:30:55.082Z,19.40
2018-06-12T05:33:22.693Z,18.43
2018-06-12T05:35:49.614Z,17.50
2018-06-12T05:38:16.505Z,18.30
2018-06-12T05:40:43.444Z,16.23
2018-06-12T05:43:10.316Z,18.80
2018-06-12T05:45:37.230Z,17.83
2018-06-12T05:48:04.254Z,17.77
2018-06-12T05:50:31.139Z,20.50
2018-06-12T05:52:58.069Z,18.17
2018-06-12T05:55:24.988Z,18.27
2018-06-12T05:57:51.939Z,17.27
2018-06-12T06:00:18.834Z,20.87
2018-06-12T06:02:46.524Z,19.67
2018-06-12T06:05:13.492Z,19.80
2018-06-12T06:07:40.377Z,17.97
2018-06-12T06:10:07.310Z,17.93
2018-06-12T06:12:34.224Z,19.30
2018-06-12T06:15:01.172Z,18.73
2018-06-12T06:17:28.017Z,18.17
2018-06-12T06:19:54.889Z,21.10
2018-06-12T06:22:22.634Z,19.20
2018-06-12T06:24:49.512Z,17.63
2018-06-12T06:27:17.225Z,19.67
2018-06-12T06:29:45.979Z,17.50
2018-06-12T06:32:12.941Z,18.13
2018-06-12T06:34:40.376Z,18.30
2018-06-12T06:37:07.312Z,19.50
2018-06-12T06:39:34.308Z,20.20
2018-06-12T06:42:01.201Z,17.00
2018-06-12T06:44:29.872Z,17.47
2018-06-12T06:46:56.833Z,17.83
2018-06-12T06:49:23.838Z,20.20
2018-06-12T06:51:50.856Z,20.10
2018-06-12T06:54:18.544Z,21.23
2018-06-12T06:57:01.554Z,22.10
2018-06-12T06:59:32.334Z,19.50
2018-06-12T07:01:59.237Z,17.27
2018-06-12T07:04:26.240Z,18.17
2018-06-12T07:06:53.831Z,17.60
2018-06-12T07:09:24.173Z,18.57
2018-06-12T07:11:54.310Z,17.20
2018-06-12T07:14:21.357Z,18.47
2018-06-12T07:16:48.364Z,16.17
2018-06-12T07:19:15.225Z,16.37
2018-06-12T07:21:42.184Z,17.43
2018-06-12T07:24:09.216Z,15.80
2018-06-12T07:26:36.225Z,15.17
2018-06-12T07:29:03.211Z,19.10
2018-06-12T07:31:30.164Z,18.10
2018-06-12T07:33:57.881Z,17.33
2018-06-12T07:36:24.772Z,16.80
2018-06-12T07:38:52.560Z,16.00
2018-06-12T07:41:19.435Z,17.33
2018-06-12T07:43:46.380Z,16.77
2018-06-12T07:46:13.384Z,18.30
2018-06-12T07:48:40.323Z,16.80
2018-06-12T07:51:07.183Z,15.03
2018-06-12T07:53:34.112Z,15.53
2018-06-12T07:56:01.010Z,17.43
2018-06-12T07:58:28.743Z,17.50
2018-06-12T08:00:55.686Z,16.00
2018-06-12T08:03:22.592Z,14.63
2018-06-12T08:05:50.333Z,16.97
2018-06-12T08:08:17.210Z,16.67
2018-06-12T08:10:44.819Z,16.60
2018-06-12T08:13:11.748Z,17.00
2018-06-12T08:15:39.576Z,16.40
2018-06-12T08:18:06.504Z,18.67
2018-06-12T08:20:33.435Z,16.77
2018-06-12T08:23:00.425Z,14.73
2018-06-12T08:25:27.357Z,16.43
2018-06-12T08:27:54.205Z,16.30
2018-06-12T08:30:21.257Z,14.73
2018-06-12T08:32:48.082Z,13.77
2018-06-12T08:35:15.030Z,12.93
2018-06-12T08:37:41.964Z,13.73
2018-06-12T08:40:08.910Z,14.40
2018-06-12T08:42:35.931Z,15.80
2018-06-12T08:45:05.636Z,14.23
2018-06-12T08:47:32.606Z,15.80
2018-06-12T08:49:59.589Z,17.30
2018-06-12T08:52:26.537Z,15.20
2018-06-12T08:54:53.414Z,15.10
2018-06-12T08:57:20.294Z,16.10
2018-06-12T08:59:47.250Z,15.90
2018-06-12T09:02:14.189Z,15.93
2018-06-12T09:04:41.130Z,15.70
2018-06-12T09:07:08.077Z,18.03
2018-06-12T09:09:34.938Z,15.50
2018-06-12T09:12:01.915Z,17.90
2018-06-12T09:14:29.538Z,16.20
2018-06-12T09:16:56.400Z,15.43
2018-06-12T09:19:23.383Z,16.60
2018-06-12T09:21:51.006Z,16.10
2018-06-12T09:24:18.007Z,18.57
2018-06-12T09:26:44.867Z,17.57
2018-06-12T09:29:11.793Z,17.30
2018-06-12T09:31:38.733Z,19.57
2018-06-12T09:34:06.349Z,19.90
2018-06-12T09:36:33.405Z,16.40
2018-06-12T09:39:00.311Z,19.10
2018-06-12T09:41:27.240Z,19.13
2018-06-12T09:43:54.147Z,18.67
2018-06-12T09:46:21.099Z,16.17
2018-06-12T09:48:47.958Z,17.43
2018-06-12T09:51:14.887Z,18.67
2018-06-12T09:53:41.744Z,16.83
2018-06-12T09:56:08.611Z,16.70
2018-06-12T09:58:35.562Z,16.93
2018-06-12T10:01:02.510Z,17.23
2018-06-12T10:03:29.440Z,16.93
2018-06-12T10:05:57.135Z,15.53
2018-06-12T10:08:24.085Z,19.30
2018-06-12T10:10:50.964Z,18.50
2018-06-12T10:13:17.826Z,18.03
2018-06-12T10:15:44.734Z,19.73
2018-06-12T10:18:11.738Z,20.17
2018-06-12T10:20:39.436Z,22.20
2018-06-12T10:23:06.324Z,19.70
2018-06-12T10:25:33.265Z,19.30
2018-06-12T10:28:00.110Z,21.67
2018-06-12T10:30:27.045Z,21.27
2018-06-12T10:32:53.973Z,25.50
2018-06-12T10:35:21.182Z,26.03
2018-06-12T10:37:48.067Z,24.97
2018-06-12T10:40:14.982Z,24.87
2018-06-12T10:42:41.920Z,25.77
2018-06-12T10:45:08.866Z,23.57
2018-06-12T10:47:36.493Z,27.07
2018-06-12T10:50:03.491Z,23.67
2018-06-12T10:52:30.451Z,20.50
2018-06-12T10:54:57.316Z,20.10
2018-06-12T10:57:24.269Z,21.90
2018-06-12T10:59:54.164Z,20.47
2018-06-12T11:02:21.848Z,23.10
2018-06-12T11:04:52.322Z,21.10
2018-06-12T11:10:13.133Z,22.03
2018-06-12T11:12:44.643Z,23.87
2018-06-12T11:15:16.643Z,23.30
2018-06-12T11:17:53.961Z,22.00
2018-06-12T11:20:21.226Z,23.40
2018-06-12T11:22:48.141Z,20.83
2018-06-12T11:25:19.131Z,21.70
2018-06-12T11:27:51.155Z,24.37
2018-06-12T11:30:20.693Z,22.43
2018-06-12T11:32:51.328Z,22.93
2018-06-12T11:35:22.449Z,23.40
2018-06-12T11:37:51.760Z,25.77
2018-06-12T11:40:23.012Z,24.30
2018-06-12T11:42:52.436Z,26.10
2018-06-12T11:45:21.179Z,26.67
2018-06-12T11:47:48.733Z,25.70
2018-06-12T11:50:16.558Z,26.73
2018-06-12T11:52:44.506Z,25.80
2018-06-12T11:55:12.279Z,25.37
2018-06-12T11:57:43.306Z,24.67
2018-06-12T12:00:10.323Z,29.10
2018-06-12T12:02:37.483Z,24.83
2018-06-12T12:05:04.482Z,23.27
2018-06-12T12:07:31.340Z,24.37
2018-06-12T12:09:59.746Z,23.50
2018-06-12T12:12:27.799Z,25.23
2018-06-12T12:14:54.748Z,25.67
2018-06-12T12:17:21.605Z,27.30
2018-06-12T12:19:49.272Z,27.13
2018-06-12T12:22:17.038Z,27.13
2018-06-12T12:24:45.115Z,27.07
2018-06-12T12:27:12.848Z,21.90
2018-06-12T12:29:41.090Z,26.80
2018-06-12T12:32:07.989Z,25.20
2018-06-12T12:34:35.602Z,25.13
2018-06-12T12:37:03.924Z,27.80
2018-06-12T12:39:30.863Z,23.47
2018-06-12T12:41:58.163Z,22.53
2018-06-12T12:44:25.058Z,20.33
2018-06-12T12:46:52.024Z,21.17
2018-06-12T12:49:19.809Z,20.17
2018-06-12T12:51:46.785Z,22.53
2018-06-12T12:54:13.769Z,19.87
2018-06-12T12:56:40.701Z,21.47
2018-06-12T12:59:07.657Z,19.30
2018-06-12T13:01:34.565Z,19.27
2018-06-12T13:04:01.508Z,19.03
2018-06-12T13:06:28.488Z,17.53
2018-06-12T13:08:55.556Z,19.10
2018-06-12T13:11:22.530Z,18.73
2018-06-12T13:13:49.497Z,18.23
2018-06-12T13:16:16.442Z,18.40
2018-06-12T13:18:44.601Z,20.57
2018-06-12T13:21:11.609Z,17.63
2018-06-12T13:23:38.496Z,18.73
2018-06-12T13:26:05.520Z,17.60
2018-06-12T13:28:33.241Z,18.10
2018-06-12T13:31:00.161Z,16.77
2018-06-12T13:33:27.163Z,15.40
2018-06-12T13:35:54.200Z,15.93
2018-06-12T13:38:21.197Z,16.57
2018-06-12T13:40:48.169Z,13.33
2018-06-12T13:43:15.126Z,14.00
2018-06-12T13:45:42.051Z,12.33
2018-06-12T13:48:09.039Z,13.97
2018-06-12T13:50:36.698Z,14.47
2018-06-12T13:53:03.649Z,13.37
2018-06-12T13:55:30.686Z,15.60
2018-06-12T13:57:57.955Z,14.73
2018-06-12T14:00:25.037Z,15.27
2018-06-12T14:02:55.521Z,15.33
2018-06-12T14:05:22.779Z,16.90
2018-06-12T14:07:51.651Z,14.10
2018-06-12T14:10:18.648Z,15.70
2018-06-12T14:12:46.266Z,14.70
2018-06-12T14:15:14.894Z,15.60
2018-06-12T14:17:42.608Z,14.00
2018-06-12T14:20:12.493Z,16.87
2018-06-12T14:22:41.832Z,14.57
2018-06-12T14:25:10.522Z,13.07
2018-06-12T14:27:37.408Z,13.77
2018-06-12T14:30:07.261Z,13.40
2018-06-12T14:32:35.012Z,12.67
2018-06-12T14:35:03.916Z,11.40
2018-06-12T14:37:32.872Z,11.20
2018-06-12T14:40:00.503Z,11.40
2018-06-12T14:42:30.845Z,10.60
2018-06-12T14:44:59.764Z,11.30
2018-06-12T14:47:29.692Z,11.53
2018-06-12T14:49:56.747Z,12.13
2018-06-12T14:52:24.962Z,10.60
2018-06-12T14:54:55.533Z,11.30
2018-06-12T14:57:26.610Z,10.20
2018-06-12T14:59:54.509Z,11.13
2018-06-12T15:02:22.961Z,11.60
2018-06-12T15:04:49.930Z,11.03
2018-06-12T15:07:16.849Z,10.77
2018-06-12T15:09:44.589Z,10.77
2018-06-12T15:12:14.180Z,11.60
2018-06-12T15:14:41.181Z,11.33
2018-06-12T15:17:08.164Z,11.27
2018-06-12T15:19:35.133Z,10.77
2018-06-12T15:22:02.079Z,9.67
2018-06-12T15:24:29.809Z,10.30
2018-06-12T15:26:56.787Z,10.70
2018-06-12T15:29:24.536Z,10.60
2018-06-12T15:31:54.057Z,10.90
2018-06-12T15:34:21.545Z,11.37
2018-06-12T15:36:48.473Z,12.73
2018-06-12T15:39:15.378Z,11.40
2018-06-12T15:41:42.241Z,11.40
2018-06-12T15:44:12.283Z,12.37
2018-06-12T15:46:43.132Z,10.93
2018-06-12T15:49:10.333Z,12.73
2018-06-12T15:51:37.208Z,11.87
2018-06-12T15:54:05.420Z,11.23
2018-06-12T15:56:32.369Z,12.33
2018-06-12T15:58:59.320Z,11.17
2018-06-12T16:01:26.195Z,13.70
2018-06-12T16:03:56.030Z,12.00
2018-06-12T16:06:23.738Z,13.43
2018-06-12T16:08:50.691Z,11.90
2018-06-12T16:11:18.836Z,12.97
2018-06-12T16:13:45.797Z,12.33
2018-06-12T16:16:14.170Z,12.03
2018-06-12T16:18:42.747Z,11.30
2018-06-12T16:21:10.508Z,12.03
2018-06-12T16:23:37.988Z,11.47
2018-06-12T16:26:04.964Z,10.43
2018-06-12T16:28:32.740Z,10.37
2018-06-12T16:30:59.698Z,11.07
2018-06-12T16:33:26.570Z,9.33
2018-06-12T16:35:53.507Z,10.20
2018-06-12T16:38:21.127Z,10.93
2018-06-12T16:40:48.066Z,10.83
2018-06-12T16:43:14.935Z,10.60
2018-06-12T16:45:41.853Z,10.70
2018-06-12T16:48:10.689Z,10.43
2018-06-12T16:50:45.901Z,10.57
2018-06-12T16:53:14.820Z,9.97
2018-06-12T16:55:42.693Z,10.50
2018-06-12T16:58:19.253Z,9.03
2018-06-12T17:00:47.165Z,11.30
2018-06-12T17:03:17.866Z,10.70
2018-06-12T17:05:44.860Z,9.37
2018-06-12T17:08:11.743Z,8.73
2018-06-12T17:10:38.649Z,9.37
2018-06-12T17:13:05.666Z,10.57
2018-06-12T17:15:32.635Z,9.37
2018-06-12T17:18:03.200Z,9.43
2018-06-12T17:20:30.278Z,9.97
2018-06-12T17:22:57.347Z,10.57
2018-06-12T17:25:24.254Z,9.20
2018-06-12T17:27:51.340Z,9.90
2018-06-12T17:30:18.274Z,9.23
2018-06-12T17:32:45.384Z,9.20
2018-06-12T17:35:14.057Z,9.40
2018-06-12T17:37:41.884Z,9.10
2018-06-12T17:40:08.852Z,9.70
2018-06-12T17:42:35.834Z,8.57
2018-06-12T17:45:12.607Z,8.77
2018-06-12T17:47:40.824Z,9.17
2018-06-12T17:50:18.022Z,8.80
2018-06-12T17:52:45.130Z,8.43
2018-06-12T17:55:12.777Z,9.00
2018-06-12T17:57:39.758Z,8.83
2018-06-12T18:00:06.954Z,8.80
2018-06-12T18:02:33.872Z,9.17
2018-06-12T18:05:01.853Z,8.43
2018-06-12T18:07:39.310Z,9.33
2018-06-12T18:10:07.177Z,8.70
2018-06-12T18:12:35.313Z,9.30
2018-06-12T18:15:02.304Z,9.17
2018-06-12T18:17:30.085Z,9.57
2018-06-12T18:19:57.652Z,8.53
2018-06-12T18:22:24.984Z,9.20
2018-06-12T18:24:52.048Z,9.43
2018-06-12T18:27:21.867Z,9.50
2018-06-12T18:29:49.608Z,9.07
2018-06-12T18:32:20.100Z,9.73
2018-06-12T18:34:47.205Z,10.70
2018-06-12T18:37:15.012Z,9.83
2018-06-12T18:39:42.975Z,10.43
2018-06-12T18:42:09.985Z,9.70
2018-06-12T18:44:39.705Z,9.40
2018-06-12T18:47:10.308Z,9.20
2018-06-12T18:49:37.469Z,9.40
2018-06-12T18:52:05.997Z,9.60
2018-06-12T18:54:33.114Z,9.00
2018-06-12T18:57:02.986Z,10.90
2018-06-12T18:59:32.053Z,10.00
2018-06-12T19:01:59.180Z,9.73
2018-06-12T19:04:26.924Z,10.90
2018-06-12T19:06:53.941Z,10.30
2018-06-12T19:09:21.000Z,10.10
2018-06-12T19:11:48.038Z,9.90
2018-06-12T19:14:15.001Z,10.80
2018-06-12T19:16:42.088Z,9.93
2018-06-12T19:19:09.829Z,10.23
2018-06-12T19:21:36.760Z,9.40
2018-06-12T19:24:03.809Z,9.40
2018-06-12T19:26:30.930Z,8.87
2018-06-12T19:28:57.879Z,10.10
2018-06-12T19:31:24.766Z,9.77
2018-06-12T19:33:51.713Z,8.60
2018-06-12T19:36:18.629Z,8.93
2018-06-12T19:38:45.685Z,9.40
2018-06-12T19:41:12.605Z,9.83
2018-06-12T19:43:39.593Z,8.43
2018-06-12T19:46:06.484Z,8.33
2018-06-12T19:48:33.423Z,7.67
2018-06-12T19:51:00.315Z,8.10
2018-06-12T19:53:27.278Z,8.47
2018-06-12T19:55:54.229Z,8.90
2018-06-12T19:58:21.125Z,7.20
2018-06-12T20:00:48.104Z,7.40
2018-06-12T20:03:15.027Z,8.40
2018-06-12T20:05:41.981Z,8.60
2018-06-12T20:08:08.918Z,8.33
2018-06-12T20:10:35.899Z,7.10
2018-06-12T20:13:02.891Z,8.17
2018-06-12T20:15:29.826Z,8.27
2018-06-12T20:17:56.945Z,9.20
2018-06-12T20:20:23.946Z,6.63
2018-06-12T20:22:50.866Z,8.00
2018-06-12T20:25:17.816Z,8.57
2018-06-12T20:27:45.477Z,7.80
2018-06-12T20:30:13.181Z,7.40
2018-06-12T20:32:40.129Z,7.93
2018-06-12T20:35:07.062Z,7.87
2018-06-12T20:37:34.121Z,8.33
2018-06-12T20:40:01.220Z,8.00
2018-06-12T20:42:28.171Z,8.60
2018-06-12T20:44:55.769Z,8.20
2018-06-12T20:47:22.692Z,7.40
2018-06-12T20:49:49.657Z,8.83
2018-06-12T20:52:16.609Z,7.87
2018-06-12T20:54:43.485Z,7.40
2018-06-12T20:57:10.491Z,6.70
2018-06-12T20:59:37.357Z,7.37
2018-06-12T21:02:04.490Z,8.93
2018-06-12T21:04:31.413Z,7.73
2018-06-12T21:07:12.411Z,8.40
2018-06-12T21:09:40.487Z,7.83
2018-06-12T21:12:07.490Z,8.17
2018-06-12T21:14:34.449Z,7.30
2018-06-12T21:17:01.475Z,8.70
2018-06-12T21:19:28.415Z,6.83
2018-06-12T21:21:56.081Z,8.17
2018-06-12T21:24:23.736Z,8.20
2018-06-12T21:26:50.797Z,8.30
2018-06-12T21:29:18.466Z,7.83
2018-06-12T21:31:46.426Z,8.13
2018-06-12T21:34:13.361Z,7.20
2018-06-12T21:36:40.325Z,8.00
2018-06-12T21:39:07.248Z,8.20
2018-06-12T21:41:34.148Z,7.87
2018-06-12T21:44:01.178Z,7.93
2018-06-12T21:46:28.150Z,8.30
2018-06-12T21:48:56.353Z,7.40
2018-06-12T21:51:23.401Z,7.60
2018-06-12T21:53:50.733Z,8.10
2018-06-12T21:56:17.694Z,8.70
2018-06-12T21:58:49.324Z,8.63
2018-06-12T22:01:28.632Z,8.93
2018-06-12T22:04:02.930Z,9.03
2018-06-12T22:06:33.295Z,10.03
2018-06-12T22:09:00.392Z,10.23
2018-06-12T22:11:27.342Z,9.53
2018-06-12T22:13:54.365Z,10.20
2018-06-12T22:16:28.392Z,10.90
2018-06-12T22:19:06.056Z,10.33
2018-06-12T22:21:33.016Z,10.83
2018-06-12T22:24:10.004Z,11.50
2018-06-12T22:26:39.869Z,12.17
2018-06-12T22:29:08.471Z,11.63
2018-06-12T22:31:36.042Z,11.10
2018-06-12T22:34:05.144Z,10.93
2018-06-12T22:36:35.360Z,12.17
2018-06-12T22:42:01.320Z,11.43
2018-06-12T22:44:29.093Z,11.10
2018-06-12T22:47:07.921Z,11.70
2018-06-12T22:49:37.224Z,12.03
2018-06-12T22:52:04.170Z,13.30
2018-06-12T22:54:31.997Z,13.30
2018-06-12T22:57:09.004Z,14.13
2018-06-12T22:59:38.912Z,14.70
2018-06-12T23:02:05.968Z,13.40
2018-06-12T23:04:32.911Z,13.90
2018-06-12T23:06:59.791Z,14.90
2018-06-12T23:09:26.735Z,15.00
2018-06-12T23:11:53.631Z,13.87
2018-06-12T23:14:21.400Z,14.90
2018-06-12T23:16:49.156Z,13.80
2018-06-12T23:19:16.140Z,14.33
2018-06-12T23:21:59.956Z,13.20
2018-06-12T23:24:27.689Z,14.83
2018-06-12T23:26:54.633Z,15.73
2018-06-12T23:29:21.580Z,14.97
2018-06-12T23:31:48.524Z,16.30
2018-06-12T23:34:15.396Z,14.83
2018-06-12T23:36:43.100Z,14.93
2018-06-12T23:39:10.052Z,15.13
2018-06-12T23:41:36.944Z,14.80
2018-06-12T23:44:04.792Z,14.67
2018-06-12T23:46:31.757Z,15.30
2018-06-12T23:48:58.652Z,14.60
2018-06-12T23:51:25.553Z,14.03
2018-06-12T23:53:53.220Z,15.47
2018-06-12T23:56:20.200Z,15.70
2018-06-12T23:58:47.143Z,15.07
